Time;durP1;ratioP1;P1;durP2;ratioP2;P2;SDS_P1;SDS_P2;PMS_P1;PMS_P2;Temp;Humidity;BMP_temperature;BMP_pressure;BME280_temperature;BME280_humidity;BME280_pressure;Samples;Min_cycle;Max_cycle;Signal;HPM_P1;HPM_P2
2022/03/31 00:00:56;;;;;;;2.80;2.60;;;;;;;14.76;44.88;95082.88;4868515;29;20703;-86
2022/03/31 00:03:29;;;;;;;2.73;2.30;;;;;;;15.38;44.76;95224.75;4882433;29;20226;-86
2022/03/31 00:05:56;;;;;;;2.50;2.30;;;;;;;14.77;44.82;95089.66;4882827;29;20225;-86
2022/03/31 00:08:24;;;;;;;2.87;2.30;;;;;;;17.27;44.68;95503.09;4916184;29;20233;-85
2022/03/31 00:10:52;;;;;;;2.53;2.33;;;;;;;11.65;44.02;94523.28;4881675;29;20214;-85
2022/03/31 00:13:21;;;;;;;2.53;2.33;;;;;;;13.15;44.04;94794.75;4880478;29;20214;-85
2022/03/31 00:39:50;;;;;;;1.90;1.80;;;;;;;14.33;44.64;95029.06;4897755;29;20226;-86
2022/03/31 00:42:17;;;;;;;2.30;2.10;;;;;;;13.82;44.62;94934.72;4866598;29;20247;-86
2022/03/31 00:44:46;;;;;;;2.90;2.30;;;;;;;14.92;44.51;95117.72;4882081;29;20217;-86
2022/03/31 00:47:13;;;;;;;2.27;2.07;;;;;;;14.93;44.52;95074.75;4866429;29;20234;-86
2022/03/31 00:49:40;;;;;;;2.20;2.00;;;;;;;14.69;44.62;95031.38;4851476;29;20297;-86
2022/03/31 00:52:07;;;;;;;2.23;2.10;;;;;;;14.74;44.69;95074.44;4851487;29;20224;-87
2022/03/31 00:54:36;;;;;;;2.83;2.20;;;;;;;15.20;44.81;95158.66;4854218;29;20262;-86
2022/03/31 00:57:06;;;;;;;2.40;2.20;;;;;;;15.92;44.65;95234.88;4866982;29;20198;-86
2022/03/31 00:59:33;;;;;;;2.23;2.03;;;;;;;13.98;44.48;94868.50;4866748;29;20636;-83
2022/03/31 01:02:00;;;;;;;1.90;1.80;;;;;;;12.33;44.59;94581.63;4853029;29;20206;-86
2022/03/31 01:04:28;;;;;;;2.23;2.03;;;;;;;13.28;44.54;94719.34;4862195;29;20269;-86
2022/03/31 01:06:58;;;;;;;2.57;2.30;;;;;;;11.50;44.49;94460.97;4880531;29;20229;-86
2022/03/31 01:09:25;;;;;;;2.27;2.07;;;;;;;13.36;44.79;94802.69;4850560;29;20233;-86
2022/03/31 01:12:04;;;;;;;2.10;2.00;;;;;;;13.75;44.54;94794.13;4880894;29;20213;-86
2022/03/31 01:14:32;;;;;;;2.40;2.20;;;;;;;13.99;44.21;94879.47;4868010;29;20210;-86
2022/03/31 01:17:02;;;;;;;2.50;2.30;;;;;;;13.92;44.70;94896.19;4866102;29;20203;-85
2022/03/31 01:19:29;;;;;;;2.33;2.20;;;;;;;16.22;44.35;95270.78;4862814;29;20581;-86
2022/03/31 01:21:56;;;;;;;2.40;2.20;;;;;;;14.54;44.05;94953.63;4846991;29;20203;-85
2022/03/31 01:24:22;;;;;;;2.40;2.20;;;;;;;14.73;44.39;95029.72;4850959;29;20202;-86
2022/03/31 01:26:49;;;;;;;2.53;2.33;;;;;;;13.29;45.02;94713.47;4866323;29;20567;-85
2022/03/31 01:29:16;;;;;;;2.60;2.40;;;;;;;13.81;43.90;94826.16;4871052;29;20226;-87
2022/03/31 01:31:44;;;;;;;2.70;2.50;;;;;;;15.04;44.33;95019.28;4866181;29;20202;-86
2022/03/31 01:34:14;;;;;;;2.80;2.50;;;;;;;13.44;44.24;94717.94;4862012;29;20231;-86
2022/03/31 01:36:42;;;;;;;2.40;2.20;;;;;;;14.41;44.72;94862.47;4865617;29;20206;-86
2022/03/31 01:39:12;;;;;;;2.57;2.30;;;;;;;12.91;44.26;94604.44;4879904;29;20244;-86
2022/03/31 01:41:39;;;;;;;2.60;2.40;;;;;;;13.19;44.22;94672.97;4864822;29;20226;-85
2022/03/31 01:44:06;;;;;;;2.53;2.33;;;;;;;14.96;44.72;95031.81;4866178;29;20213;-87
2022/03/31 01:46:38;;;;;;;2.87;2.53;;;;;;;15.03;44.66;94977.97;4865758;29;20681;-86
2022/03/31 01:49:13;;;;;;;2.40;2.20;;;;;;;12.18;44.25;94540.25;4865077;29;20230;-85
2022/03/31 01:51:40;;;;;;;2.57;2.37;;;;;;;14.78;44.10;94949.78;4880072;29;20201;-85
2022/03/31 01:54:07;;;;;;;2.60;2.40;;;;;;;12.01;44.55;94512.25;4880651;29;20218;-86
2022/03/31 01:56:34;;;;;;;2.43;2.23;;;;;;;14.77;44.74;94946.41;4880574;29;20229;-87
2022/03/31 01:59:01;;;;;;;3.40;2.40;;;;;;;14.93;44.98;95010.69;4857166;29;20222;-85
2022/03/31 02:01:28;;;;;;;2.50;2.10;;;;;;;14.82;44.96;94957.44;4854131;29;20258;-85
2022/03/31 02:03:55;;;;;;;2.20;2.10;;;;;;;13.08;45.21;94671.97;4861741;29;20206;-86
2022/03/31 02:06:22;;;;;;;2.40;2.20;;;;;;;14.51;45.30;94899.72;4864545;29;20277;-86
2022/03/31 02:08:48;;;;;;;2.50;2.30;;;;;;;12.38;44.58;94528.84;4861504;29;20234;-87
2022/03/31 02:11:18;;;;;;;3.00;2.80;;;;;;;13.29;44.89;94745.44;4845939;29;20226;-87
2022/03/31 02:13:45;;;;;;;2.23;2.03;;;;;;;11.38;44.25;94394.53;4870261;29;20206;-87
2022/03/31 03:04:37;;;;;;;2.40;2.20;;;;;;;14.86;44.62;94935.59;4926746;29;20208;-87
2022/03/31 03:07:10;;;;;;;2.50;2.30;;;;;;;14.96;44.80;94950.91;4882795;29;20225;-86
2022/03/31 03:09:36;;;;;;;2.73;2.53;;;;;;;15.74;44.56;95092.81;4848804;29;20214;-86
2022/03/31 03:12:05;;;;;;;2.67;2.47;;;;;;;18.49;44.68;95537.63;4865414;29;20216;-86
2022/03/31 03:14:32;;;;;;;2.97;2.77;;;;;;;14.84;44.74;94933.03;4878499;29;20325;-86
2022/03/31 03:16:59;;;;;;;2.70;2.50;;;;;;;14.80;44.95;94960.78;4882482;29;20715;-86
2022/03/31 03:19:29;;;;;;;2.63;2.43;;;;;;;13.38;44.89;94622.84;4868837;29;20225;-86
2022/03/31 03:22:03;;;;;;;2.90;2.70;;;;;;;11.37;45.17;94314.94;4898899;29;20202;-85
2022/03/31 03:24:37;;;;;;;2.80;2.60;;;;;;;16.55;44.57;95179.16;4885535;29;20237;-85
2022/03/31 03:27:04;;;;;;;2.60;2.40;;;;;;;14.90;44.64;94924.69;4883116;29;20217;-85
2022/03/31 03:29:31;;;;;;;2.77;2.43;;;;;;;14.88;44.90;94917.06;4879434;29;20218;-85
2022/03/31 03:32:08;;;;;;;2.77;2.57;;;;;;;12.42;44.58;94523.91;4896266;29;20208;-85
2022/03/31 03:34:35;;;;;;;3.03;2.73;;;;;;;12.67;44.39;94570.44;4879122;29;20254;-86
2022/03/31 03:37:02;;;;;;;2.97;2.67;;;;;;;11.64;44.93;94340.56;4880563;29;20267;-86
2022/03/31 03:39:30;;;;;;;3.57;2.40;;;;;;;16.58;44.76;95212.97;4866000;29;20218;-86
2022/03/31 03:41:57;;;;;;;2.40;2.20;;;;;;;14.85;44.57;94865.63;4867904;29;20290;-85
2022/03/31 03:44:24;;;;;;;2.87;2.60;;;;;;;17.15;44.50;95307.53;4868026;29;20210;-86
2022/03/31 03:46:52;;;;;;;2.87;2.67;;;;;;;15.74;45.22;95070.91;4886062;29;20248;-86
2022/03/31 03:49:19;;;;;;;2.80;2.60;;;;;;;13.23;44.64;94690.69;4870464;29;20230;-87
2022/03/31 03:51:49;;;;;;;2.70;2.50;;;;;;;14.82;44.74;94923.72;4883147;29;20625;-86
2022/03/31 03:54:16;;;;;;;2.70;2.50;;;;;;;14.63;45.00;94882.19;4893833;29;20221;-86
2022/03/31 03:56:49;;;;;;;2.70;2.50;;;;;;;13.38;44.84;94591.75;4882532;29;20203;-86
2022/03/31 03:59:28;;;;;;;2.93;2.63;;;;;;;14.56;44.35;94858.50;4904473;29;20217;-86
2022/03/31 04:01:55;;;;;;;2.67;2.47;;;;;;;14.49;44.99;94826.41;4868823;29;20297;-86
2022/03/31 04:04:22;;;;;;;2.57;2.37;;;;;;;14.96;45.03;94897.81;4887825;29;20305;-86
2022/03/31 04:06:56;;;;;;;2.93;2.70;;;;;;;14.33;45.11;94805.97;4888884;29;20262;-86
2022/03/31 04:09:26;;;;;;;2.97;2.73;;;;;;;14.92;45.58;94921.31;4870251;29;20233;-85
2022/03/31 04:11:53;;;;;;;2.97;2.77;;;;;;;16.54;44.95;95152.94;4866944;29;20302;-85
2022/03/31 04:14:21;;;;;;;2.90;2.70;;;;;;;16.67;44.75;95200.41;4866846;29;20206;-86
2022/03/31 04:17:03;;;;;;;3.83;2.80;;;;;;;14.80;44.84;94842.81;4894827;29;20232;-85
2022/03/31 04:19:46;;;;;;;2.93;2.67;;;;;;;17.47;45.01;95331.56;4880699;29;20221;-87
2022/03/31 04:22:16;;;;;;;2.53;2.33;;;;;;;12.90;45.02;94526.31;4882891;29;20213;-85
2022/03/31 04:24:42;;;;;;;2.77;2.57;;;;;;;14.86;44.49;94867.34;4880801;29;20214;-85
2022/03/31 04:27:12;;;;;;;2.67;2.47;;;;;;;17.15;44.72;95302.44;4882595;29;20215;-84
2022/03/31 04:29:39;;;;;;;2.60;2.40;;;;;;;14.88;44.44;94906.09;4887226;29;20201;-85
2022/03/31 04:32:06;;;;;;;2.67;2.47;;;;;;;11.33;45.15;94285.53;4886836;29;20582;-86
2022/03/31 04:34:34;;;;;;;2.60;2.40;;;;;;;14.37;44.78;94820.34;4864260;29;20209;-85
2022/03/31 04:37:06;;;;;;;2.70;2.50;;;;;;;12.33;45.51;94429.75;4897455;29;20202;-86
2022/03/31 04:39:32;;;;;;;2.70;2.50;;;;;;;13.80;44.50;94686.53;4870623;29;20210;-86
2022/03/31 04:41:59;;;;;;;2.80;2.60;;;;;;;11.79;45.09;94381.91;4885394;29;20250;-85
2022/03/31 04:44:31;;;;;;;2.70;2.50;;;;;;;14.80;44.60;94892.53;4887461;29;20210;-84
2022/03/31 04:47:00;;;;;;;3.23;3.00;;;;;;;14.94;44.70;94921.34;4886637;29;20270;-85
2022/03/31 04:49:27;;;;;;;2.60;2.40;;;;;;;17.91;44.86;95404.00;4886654;29;20229;-84
2022/03/31 04:51:54;;;;;;;2.50;2.30;;;;;;;13.26;44.52;94652.09;4900504;29;20265;-83
2022/03/31 04:54:21;;;;;;;2.60;2.40;;;;;;;14.09;44.58;94755.94;4885983;29;20221;-86
2022/03/31 04:56:48;;;;;;;3.00;2.80;;;;;;;13.54;44.96;94644.97;4884508;29;20209;-86
2022/03/31 04:59:14;;;;;;;2.90;2.70;;;;;;;14.71;44.90;94937.91;4885089;29;20655;-85
2022/03/31 05:01:41;;;;;;;2.73;2.53;;;;;;;17.39;44.87;95317.94;4915726;29;20264;-86
2022/03/31 05:04:09;;;;;;;3.23;2.70;;;;;;;16.52;45.09;95152.06;4865787;29;20206;-86
2022/03/31 05:06:36;;;;;;;2.80;2.60;;;;;;;16.30;45.16;95104.50;4868476;29;20300;-86
2022/03/31 05:09:03;;;;;;;2.63;2.43;;;;;;;16.92;45.23;95211.69;4900202;29;20277;-86
2022/03/31 05:11:30;;;;;;;2.57;2.37;;;;;;;17.49;45.21;95304.53;4899041;29;20650;-86
2022/03/31 05:13:56;;;;;;;2.97;2.63;;;;;;;16.73;44.88;95171.75;4884191;29;20233;-86
2022/03/31 05:16:23;;;;;;;2.83;2.63;;;;;;;17.94;45.24;95387.91;4882592;29;20271;-86
2022/03/31 05:18:50;;;;;;;3.10;2.87;;;;;;;17.75;44.90;95356.41;4881247;29;20293;-85
2022/03/31 05:21:16;;;;;;;3.10;2.80;;;;;;;17.62;45.01;95331.72;4870105;29;20286;-86
2022/03/31 05:23:43;;;;;;;3.27;2.97;;;;;;;18.05;45.01;95406.66;4867582;29;20206;-86
2022/03/31 05:26:10;;;;;;;3.13;2.83;;;;;;;18.11;44.97;95417.75;4868566;29;20230;-84
2022/03/31 05:28:37;;;;;;;3.53;3.23;;;;;;;16.82;45.28;95195.53;4865135;29;20317;-84
2022/03/31 05:31:04;;;;;;;3.93;3.60;;;;;;;17.99;45.29;95407.47;4865928;29;20214;-85
2022/03/31 05:33:31;;;;;;;4.27;3.47;;;;;;;16.78;45.07;95223.38;4851571;29;20669;-83
2022/03/31 05:35:59;;;;;;;4.50;4.10;;;;;;;17.98;45.17;95392.22;4907128;29;20273;-84
2022/03/31 05:38:26;;;;;;;5.17;3.67;;;;;;;17.74;45.29;95357.25;4869461;29;20261;-83
2022/03/31 05:40:53;;;;;;;4.30;3.90;;;;;;;17.94;45.08;95393.00;4868813;29;20232;-84
2022/03/31 05:43:21;;;;;;;4.87;4.23;;;;;;;17.83;45.11;95372.56;4868363;29;20243;-84
2022/03/31 05:45:47;;;;;;;4.07;3.67;;;;;;;17.85;45.12;95381.06;4869098;29;20213;-84
2022/03/31 05:48:14;;;;;;;6.13;3.73;;;;;;;17.73;45.23;95349.59;4867477;29;20222;-85
2022/03/31 05:50:41;;;;;;;4.90;3.73;;;;;;;17.70;45.10;95350.44;4884547;29;20238;-85
2022/03/31 05:53:07;;;;;;;7.43;4.00;;;;;;;17.04;45.31;95240.56;4889531;29;20300;-87
2022/03/31 05:55:34;;;;;;;7.73;3.80;;;;;;;18.39;44.98;95469.72;4881544;29;20238;-89
2022/03/31 05:58:01;;;;;;;5.17;4.07;;;;;;;17.10;45.00;95247.38;4850576;29;20290;-86
2022/03/31 06:00:28;;;;;;;4.40;3.53;;;;;;;17.74;45.74;95367.41;4850790;29;20274;-86
2022/03/31 06:02:55;;;;;;;4.60;4.10;;;;;;;18.10;45.35;95416.06;4849227;29;20776;-86
2022/03/31 06:05:22;;;;;;;5.80;4.10;;;;;;;17.59;45.50;95334.22;4867593;29;20221;-86
2022/03/31 06:07:49;;;;;;;7.33;3.80;;;;;;;18.02;45.12;95404.09;4877810;29;20249;-86
2022/03/31 06:10:15;;;;;;;8.90;4.17;;;;;;;18.03;45.64;95421.06;4879805;29;20278;-86
2022/03/31 06:12:42;;;;;;;6.37;4.20;;;;;;;17.99;45.27;95414.22;4889217;29;20206;-87
2022/03/31 06:15:10;;;;;;;8.03;4.00;;;;;;;17.62;45.08;95326.66;4869311;29;20245;-89
2022/03/31 06:17:40;;;;;;;6.97;3.70;;;;;;;18.13;45.32;95438.97;4883617;29;20228;-88
2022/03/31 06:20:09;;;;;;;4.87;3.87;;;;;;;17.69;45.22;95369.06;4865759;29;20234;-88
2022/03/31 06:22:37;;;;;;;3.57;3.27;;;;;;;17.55;45.45;95329.09;4878905;29;20240;-87
2022/03/31 06:25:10;;;;;;;7.60;3.87;;;;;;;17.89;45.28;95389.56;4893767;29;20237;-88
2022/03/31 06:27:38;;;;;;;4.73;4.00;;;;;;;17.68;45.69;95349.56;4892350;29;20305;-86
2022/03/31 06:30:04;;;;;;;7.30;4.63;;;;;;;17.58;45.47;95326.59;4865217;29;20226;-87
2022/03/31 06:32:31;;;;;;;10.03;5.23;;;;;;;17.36;45.29;95306.88;4875572;29;20210;-87
2022/03/31 06:35:11;;;;;;;8.10;5.03;;;;;;;13.25;44.96;94613.41;4898968;29;20194;-93
2022/03/31 06:37:56;;;;;;;5.97;5.37;;;;;;;18.35;46.07;95479.84;4896610;29;20229;-93
2022/03/31 06:43:52;;;;;;;7.93;5.40;;;;;;;12.97;45.19;94668.38;5387307;23;20205;-93
2022/03/31 06:46:36;;;;;;;6.47;5.30;;;;;;;11.91;45.60;94369.53;4923644;29;20186;-93
2022/03/31 06:49:41;;;;;;;6.97;5.10;;;;;;;13.25;46.04;94626.03;4912815;29;20174;-93
2022/03/31 06:52:25;;;;;;;5.07;4.50;;;;;;;12.76;45.40;94580.66;4895436;29;20237;-93
2022/03/31 06:55:12;;;;;;;5.43;4.80;;;;;;;12.85;45.71;94570.78;4883513;29;20245;-92
2022/03/31 06:58:08;;;;;;;4.90;4.50;;;;;;;14.62;45.59;94813.09;4914686;29;20178;-92
2022/03/31 07:01:14;;;;;;;6.80;4.73;;;;;;;13.73;45.45;94704.06;4911390;29;20184;-92
2022/03/31 07:04:14;;;;;;;5.13;4.63;;;;;;;12.56;45.48;94529.97;4918803;29;20186;-94
2022/03/31 07:07:24;;;;;;;4.87;4.40;;;;;;;14.60;45.27;94821.50;4877468;29;20184;-93
2022/03/31 07:10:13;;;;;;;8.20;5.03;;;;;;;11.80;45.76;94393.66;4872219;29;20176;-93
2022/03/31 07:13:08;;;;;;;5.10;4.60;;;;;;;17.01;45.36;95229.53;4872597;29;20192;-93
2022/03/31 07:16:11;;;;;;;5.33;4.33;;;;;;;12.71;44.87;94526.88;4888888;29;20251;-93
2022/03/31 07:19:23;;;;;;;5.33;4.83;;;;;;;13.46;45.74;94698.63;4882544;29;20181;-93
2022/03/31 07:22:55;;;;;;;5.47;4.10;;;;;;;11.45;45.42;94341.03;4884658;29;20251;-93
2022/03/31 07:25:38;;;;;;;6.13;4.30;;;;;;;18.55;45.39;95501.22;4890598;29;20315;-92
2022/03/31 07:28:24;;;;;;;5.00;4.30;;;;;;;12.22;45.28;94456.41;4847223;29;20212;-93
2022/03/31 07:34:28;;;;;;;5.00;4.27;;;;;;;11.28;45.58;94246.94;4875519;29;20245;-93
2022/03/31 07:37:20;;;;;;;4.10;3.70;;;;;;;13.13;45.35;94554.41;4881330;29;20169;-95
2022/03/31 07:40:11;;;;;;;5.80;4.30;;;;;;;13.08;45.24;94566.94;4919068;29;20159;-93
2022/03/31 07:43:13;;;;;;;4.70;3.90;;;;;;;12.76;44.73;94541.22;4916168;29;20201;-93
2022/03/31 07:56:35;;;;;;;20.20;15.80;;;;;;;17.30;45.70;95269.63;5128188;23;20229;-92
2022/03/31 07:59:06;;;;;;;20.73;16.33;;;;;;;14.32;45.41;94713.34;4873680;29;20235;-91
2022/03/31 08:01:34;;;;;;;26.57;15.70;;;;;;;12.40;45.31;94431.50;4886572;29;20205;-94
2022/03/31 08:04:01;;;;;;;17.97;14.40;;;;;;;15.34;45.01;94926.94;4878483;29;20192;-92
2022/03/31 08:06:31;;;;;;;18.27;13.70;;;;;;;11.99;45.10;94316.81;4854997;29;20222;-92
2022/03/31 08:09:26;;;;;;;14.87;11.87;;;;;;;15.11;44.98;94824.66;4872196;29;20223;-93
2022/03/31 08:12:42;;;;;;;14.30;11.47;;;;;;;13.28;44.92;94593.28;4855576;29;20195;-94
2022/03/31 08:15:44;;;;;;;13.30;10.23;;;;;;;16.58;44.94;95063.41;4864164;29;20206;-94
2022/03/31 08:20:59;;;;;;;14.97;10.00;;;;;;;17.49;44.50;95220.72;5460681;23;20224;-94
2022/03/31 08:23:38;;;;;;;11.20;9.50;;;;;;;12.83;45.29;94490.13;4934742;28;20212;-94
2022/03/31 08:26:25;;;;;;;12.63;10.17;;;;;;;13.03;44.65;94524.88;4939391;28;20212;-92
2022/03/31 08:31:27;;;;;;;12.70;9.00;;;;;;;15.09;44.76;94874.34;5041032;23;20235;-93
2022/03/31 08:36:30;;;;;;;12.53;10.27;;;;;;;15.19;44.35;94807.88;4963168;23;20239;-94
2022/03/31 08:38:58;;;;;;;11.10;8.97;;;;;;;13.51;44.36;94574.28;4922016;28;20217;-92
2022/03/31 08:44:06;;;;;;;11.00;9.50;;;;;;;13.22;44.89;94481.44;4290360;26;20225;-92
2022/03/31 08:46:34;;;;;;;9.70;8.47;;;;;;;15.97;44.08;94992.66;4926803;28;20217;-92
2022/03/31 08:49:01;;;;;;;10.13;8.20;;;;;;;15.21;44.46;94828.13;4918380;29;20249;-92
2022/03/31 08:51:28;;;;;;;11.43;9.13;;;;;;;15.24;44.53;94909.09;4927754;29;20190;-92
2022/03/31 08:53:55;;;;;;;13.33;9.30;;;;;;;15.25;44.48;94840.00;4931164;29;20198;-92
2022/03/31 08:56:22;;;;;;;9.83;7.80;;;;;;;14.12;44.42;94680.22;4920442;29;20223;-93
2022/03/31 08:59:10;;;;;;;10.60;8.40;;;;;;;12.72;44.97;94400.09;4936137;29;20212;-92
2022/03/31 09:01:38;;;;;;;10.17;8.30;;;;;;;14.71;44.70;94788.78;4926375;29;20194;-95
2022/03/31 09:04:06;;;;;;;8.90;7.30;;;;;;;12.67;44.35;94374.84;4929964;29;20187;-91
2022/03/31 09:06:42;;;;;;;9.77;7.97;;;;;;;14.65;44.55;94704.47;4925983;29;20254;-93
2022/03/31 09:09:14;;;;;;;10.37;8.00;;;;;;;15.13;44.31;94781.69;4934793;29;20214;-94
2022/03/31 09:11:59;;;;;;;8.70;7.00;;;;;;;16.49;44.30;95080.22;4922548;29;20208;-91
2022/03/31 09:14:46;;;;;;;8.53;6.97;;;;;;;13.74;44.38;94637.66;4935982;29;20193;-93
2022/03/31 09:17:19;;;;;;;9.33;8.13;;;;;;;13.90;44.79;94635.34;4919771;29;20258;-93
2022/03/31 09:19:56;;;;;;;8.80;7.30;;;;;;;16.16;43.69;94979.34;4942152;29;20223;-93
2022/03/31 09:22:26;;;;;;;8.37;7.00;;;;;;;18.79;44.22;95463.25;4918580;29;20201;-93
2022/03/31 09:25:08;;;;;;;9.07;7.23;;;;;;;14.98;44.33;94812.69;4945926;29;20292;-93
2022/03/31 09:40:58;;;;;;;7.57;6.07;;;;;;;17.17;43.94;95151.03;4669460;27;20230;-89
2022/03/31 09:43:25;;;;;;;7.57;6.50;;;;;;;18.78;44.75;95403.03;5089236;23;20244;-90
2022/03/31 09:45:52;;;;;;;6.97;6.27;;;;;;;17.10;44.41;95120.53;4890942;29;20215;-91
2022/03/31 09:48:21;;;;;;;7.90;6.80;;;;;;;16.49;44.69;95032.06;4916954;29;20234;-90
2022/03/31 09:50:48;;;;;;;6.90;6.03;;;;;;;16.41;44.50;95034.50;4881043;29;20206;-89
2022/03/31 09:56:24;;;;;;;7.30;6.10;;;;;;;17.06;44.38;95117.13;4942479;29;20206;-92
2022/03/31 09:58:53;;;;;;;7.87;6.50;;;;;;;16.54;44.43;95018.59;4894232;29;20222;-88
2022/03/31 10:01:20;;;;;;;7.03;5.67;;;;;;;16.57;44.50;95045.66;4908073;29;20290;-89
2022/03/31 10:03:48;;;;;;;7.00;5.60;;;;;;;17.04;43.93;95121.34;4887330;29;20262;-89
2022/03/31 10:06:16;;;;;;;8.40;5.80;;;;;;;17.09;44.25;95101.06;4906352;29;20211;-88
2022/03/31 10:08:44;;;;;;;6.80;5.93;;;;;;;17.67;44.30;95200.56;4884206;29;20237;-88
2022/03/31 10:11:14;;;;;;;7.23;5.50;;;;;;;18.54;44.40;95345.25;4887586;29;20221;-88
2022/03/31 10:13:46;;;;;;;9.47;5.90;;;;;;;18.54;44.27;95339.28;4867341;29;20680;-88
2022/03/31 10:16:14;;;;;;;6.50;5.83;;;;;;;18.53;44.38;95335.88;4904846;29;20206;-88
2022/03/31 10:18:41;;;;;;;11.50;5.77;;;;;;;18.16;44.38;95289.03;4884496;29;20223;-91
2022/03/31 10:21:08;;;;;;;5.73;5.13;;;;;;;18.38;44.10;95299.38;4882836;29;20194;-89
2022/03/31 10:26:27;;;;;;;6.10;5.43;;;;;;;17.53;44.26;95158.16;4904778;29;20194;-90
2022/03/31 10:28:59;;;;;;;7.27;5.50;;;;;;;17.21;44.17;95109.66;4915966;29;20454;-90
2022/03/31 10:31:36;;;;;;;5.97;5.37;;;;;;;18.43;44.17;95300.22;4899693;29;20189;-88
2022/03/31 10:34:03;;;;;;;6.77;5.40;;;;;;;18.36;44.32;95285.75;4899723;29;20684;-88
2022/03/31 10:36:47;;;;;;;6.63;5.63;;;;;;;18.77;44.20;95364.00;4877690;29;20305;-86
2022/03/31 10:39:22;;;;;;;6.13;5.03;;;;;;;17.54;44.24;95175.06;4883270;29;20407;-90
2022/03/31 10:42:13;;;;;;;6.90;5.80;;;;;;;15.92;43.88;94909.06;4908762;29;20181;-92
2022/03/31 10:44:42;;;;;;;6.63;5.60;;;;;;;16.20;43.88;94938.03;4996336;23;20226;-91
2022/03/31 10:47:11;;;;;;;5.67;5.07;;;;;;;16.49;43.94;94986.44;4899823;29;20190;-92
2022/03/31 10:52:17;;;;;;;5.50;4.70;;;;;;;16.76;44.33;95012.03;4911382;29;20217;-89
2022/03/31 10:54:44;;;;;;;6.27;4.97;;;;;;;16.86;44.16;95032.41;4896981;29;20205;-89
2022/03/31 10:57:12;;;;;;;8.40;4.60;;;;;;;16.55;44.13;94994.09;4915735;29;20216;-90
2022/03/31 10:59:40;;;;;;;8.03;5.33;;;;;;;17.40;44.14;95120.75;4891377;29;20253;-92
2022/03/31 11:02:11;;;;;;;5.73;5.07;;;;;;;17.30;44.12;95112.25;4886756;29;20195;-91
2022/03/31 11:04:45;;;;;;;5.83;4.90;;;;;;;18.29;44.35;95287.38;4905579;29;20637;-89
2022/03/31 11:07:14;;;;;;;5.87;5.10;;;;;;;17.84;44.12;95215.94;4885251;29;20194;-91
2022/03/31 11:09:42;;;;;;;5.73;4.97;;;;;;;16.75;44.27;94997.66;4872696;29;20265;-91
2022/03/31 11:12:29;;;;;;;5.73;4.67;;;;;;;17.01;44.35;95040.13;4864731;29;20214;-91
2022/03/31 11:15:01;;;;;;;6.53;5.10;;;;;;;17.11;44.39;95076.56;4911266;29;20202;-89
2022/03/31 11:17:29;;;;;;;6.23;4.80;;;;;;;16.16;44.15;94894.06;4898529;29;20238;-89
2022/03/31 11:19:59;;;;;;;5.67;4.70;;;;;;;16.34;44.28;94928.84;4875128;29;20279;-91
2022/03/31 11:22:27;;;;;;;5.17;4.67;;;;;;;18.56;44.31;95302.84;4883775;29;20190;-89
2022/03/31 11:24:54;;;;;;;4.93;4.43;;;;;;;15.85;44.55;94853.28;4906488;29;20195;-90
2022/03/31 11:27:37;;;;;;;4.83;4.33;;;;;;;16.54;44.52;94961.97;4887462;29;20206;-90
2022/03/31 11:30:12;;;;;;;6.20;4.40;;;;;;;17.48;44.57;95121.72;4897507;29;20241;-90
2022/03/31 11:32:40;;;;;;;5.87;5.00;;;;;;;18.33;44.39;95276.41;4869566;29;20238;-90
2022/03/31 11:35:17;;;;;;;5.17;4.53;;;;;;;16.79;44.50;95004.44;4902461;29;20210;-89
2022/03/31 11:37:48;;;;;;;4.60;4.03;;;;;;;17.09;44.15;95063.00;4874066;29;20242;-91
2022/03/31 11:40:31;;;;;;;4.80;4.33;;;;;;;17.20;44.30;95080.00;4891790;29;20218;-90
2022/03/31 11:42:59;;;;;;;5.70;4.37;;;;;;;16.95;44.14;95017.25;4871418;29;20205;-90
2022/03/31 11:45:26;;;;;;;5.10;4.60;;;;;;;18.93;44.48;95347.16;4892082;29;20258;-91
2022/03/31 11:48:07;;;;;;;4.30;3.90;;;;;;;17.06;44.19;95052.84;4922906;29;20222;-90
2022/03/31 11:50:36;;;;;;;4.30;3.90;;;;;;;16.33;44.30;94909.41;4882379;29;20266;-89
2022/03/31 11:53:28;;;;;;;4.20;3.80;;;;;;;16.15;44.66;94897.44;4882730;29;20313;-89
2022/03/31 11:56:05;;;;;;;4.73;4.30;;;;;;;17.65;44.55;95161.59;4894094;29;20894;-88
2022/03/31 11:58:48;;;;;;;4.60;4.00;;;;;;;17.56;44.54;95145.47;4889818;29;20487;-89
2022/03/31 12:01:19;;;;;;;4.33;3.93;;;;;;;18.50;44.42;95312.16;4883049;29;20375;-89
2022/03/31 12:03:46;;;;;;;4.63;4.10;;;;;;;17.77;44.80;95154.06;4869272;29;20222;-91
2022/03/31 12:06:16;;;;;;;4.50;3.77;;;;;;;17.25;44.82;95067.34;4893033;29;20213;-91
2022/03/31 12:08:43;;;;;;;6.87;4.17;;;;;;;16.81;44.65;94988.41;4899876;29;20246;-90
2022/03/31 12:11:11;;;;;;;4.47;4.00;;;;;;;17.07;44.80;95037.63;4889293;29;20210;-89
2022/03/31 12:13:54;;;;;;;4.67;3.50;;;;;;;18.89;44.60;95327.63;4897259;29;20523;-91
2022/03/31 12:16:21;;;;;;;6.67;3.97;;;;;;;17.18;44.87;95043.66;4912208;29;20214;-90
2022/03/31 12:18:58;;;;;;;5.40;3.80;;;;;;;16.69;44.80;94983.22;4908213;29;20237;-91
2022/03/31 12:21:27;;;;;;;4.10;3.67;;;;;;;17.03;44.88;95002.09;4899599;29;20224;-91
2022/03/31 12:23:57;;;;;;;4.00;3.60;;;;;;;16.30;44.49;94905.19;4904591;29;20205;-90
2022/03/31 12:26:38;;;;;;;4.40;3.90;;;;;;;17.60;45.07;95115.03;4903328;29;20190;-90
2022/03/31 12:29:14;;;;;;;5.47;3.77;;;;;;;17.98;44.94;95176.22;4874507;29;20287;-90
2022/03/31 12:31:43;;;;;;;4.60;3.90;;;;;;;16.62;45.00;94937.53;4887906;29;20249;-91
2022/03/31 12:34:12;;;;;;;4.57;3.90;;;;;;;17.19;44.88;95029.25;4903524;29;20186;-92
2022/03/31 12:36:38;;;;;;;4.17;3.77;;;;;;;17.79;44.87;95151.53;4886387;29;20211;-90
2022/03/31 12:39:05;;;;;;;5.60;4.10;;;;;;;16.74;45.09;94940.16;4889698;29;20202;-92
2022/03/31 12:41:37;;;;;;;6.73;3.90;;;;;;;16.95;44.85;94976.66;4887492;29;20496;-92
2022/03/31 12:44:12;;;;;;;4.67;4.17;;;;;;;16.54;45.18;94913.81;4880385;29;20214;-92
2022/03/31 12:46:44;;;;;;;3.53;3.23;;;;;;;16.78;44.61;94993.44;4886979;29;20226;-91
2022/03/31 12:49:15;;;;;;;4.30;3.70;;;;;;;17.29;44.97;95033.56;4888244;29;20289;-92
2022/03/31 12:51:50;;;;;;;4.20;3.80;;;;;;;18.93;44.86;95303.88;4898944;29;20273;-91
2022/03/31 12:54:21;;;;;;;6.80;3.97;;;;;;;17.09;44.81;95002.13;4913862;29;20211;-92
2022/03/31 12:56:49;;;;;;;5.97;4.00;;;;;;;18.74;44.79;95257.16;4894191;29;20266;-91
2022/03/31 12:59:19;;;;;;;5.70;3.53;;;;;;;18.71;44.63;95274.94;4883949;29;20231;-92
2022/03/31 13:02:10;;;;;;;4.07;3.57;;;;;;;18.41;44.64;95192.59;4872482;29;20194;-92
2022/03/31 13:04:44;;;;;;;4.63;3.90;;;;;;;16.80;44.78;94917.38;4894246;29;20266;-93
2022/03/31 13:07:15;;;;;;;4.00;3.60;;;;;;;18.95;44.67;95282.69;4907822;29;20216;-92
2022/03/31 13:09:52;;;;;;;4.37;3.97;;;;;;;16.62;44.71;94930.78;4902970;29;20310;-91
2022/03/31 13:12:19;;;;;;;4.33;3.27;;;;;;;16.39;44.57;94868.91;4887114;29;20198;-92
2022/03/31 13:14:48;;;;;;;3.57;3.27;;;;;;;16.96;44.55;94964.84;4881746;29;20193;-91
2022/03/31 13:17:16;;;;;;;4.00;3.50;;;;;;;17.73;44.55;95096.47;4885919;29;20197;-92
2022/03/31 13:19:46;;;;;;;4.07;3.40;;;;;;;16.49;44.63;94865.63;4886495;29;20211;-92
2022/03/31 13:22:16;;;;;;;4.33;3.47;;;;;;;16.43;44.57;94891.78;4901074;29;20207;-93
2022/03/31 13:24:43;;;;;;;3.97;3.57;;;;;;;17.23;44.63;94991.22;4907123;29;20182;-92
2022/03/31 13:27:13;;;;;;;4.63;3.23;;;;;;;17.04;44.56;94950.50;4891472;29;20292;-92
2022/03/31 13:29:40;;;;;;;4.33;3.93;;;;;;;16.82;44.59;94911.50;4903420;29;20241;-91
2022/03/31 13:32:07;;;;;;;3.70;3.40;;;;;;;17.03;44.46;94949.66;4883808;29;20191;-90
2022/03/31 13:34:46;;;;;;;4.73;3.83;;;;;;;16.66;44.32;94868.25;4886246;29;20237;-93
2022/03/31 13:37:22;;;;;;;5.40;3.33;;;;;;;16.17;44.19;94806.25;4893605;29;20198;-91
2022/03/31 13:39:51;;;;;;;4.37;3.70;;;;;;;16.87;44.51;94902.22;4901141;29;20277;-92
2022/03/31 13:42:18;;;;;;;4.50;3.67;;;;;;;17.30;44.35;94989.56;4883029;29;20216;-91
2022/03/31 13:44:48;;;;;;;4.93;3.73;;;;;;;17.16;44.42;94964.13;4883827;29;20210;-92
2022/03/31 13:47:17;;;;;;;5.33;3.40;;;;;;;17.69;44.03;95028.75;4868940;29;20210;-91
2022/03/31 13:49:44;;;;;;;4.17;3.73;;;;;;;18.40;44.21;95186.66;4881383;29;20245;-90
2022/03/31 13:52:12;;;;;;;3.90;3.57;;;;;;;16.57;44.61;94869.06;4887355;29;20274;-92
2022/03/31 13:54:39;;;;;;;4.17;3.33;;;;;;;16.64;44.45;94873.31;4886259;29;20186;-91
2022/03/31 14:01:07;;;;;;;3.37;3.07;;;;;;;17.36;44.42;94981.97;4907757;29;20219;-93